Brackettville, Texas
Current Conditions -  °F | °C
As of 8:58 PM on Friday 21 Nov 2014 (Local Time) from KDLF Reporting Station
Overcast Overcast  
Wind Chill: 64°   Ceiling: 2800
Heat Index: 64°   Visibility: 10mi
Dew Point: 63°   Wind: 2mph
Humidity: 94%   Direction: 360°N
Pressure: 29.96"   Gusts: NA
Location:  29.31°N, 100.42°W
Report Text: KDLF 220258Z AUTO 36002KT 10SM BKN028 OVC035 18/17 A2996 RMK AO2 CIG 028V035 BKN V FEW SLP138 53006 $
Loading
Personal Weather Stations






























Interactive Weather Map New forecast layout! Learn more

10-Day Weather Forecast

Advertisements
Track Severe Weather on mobile